createdAt,value
2024-02-12T00:02:20.549Z,11.88
2024-02-12T00:04:49.317Z,9.68
2024-02-12T00:07:18.018Z,17.55
2024-02-12T00:09:45.742Z,9.82
2024-02-12T00:12:12.740Z,15.35
2024-02-12T00:14:40.219Z,10.60
2024-02-12T00:17:10.864Z,10.45
2024-02-12T00:19:39.238Z,9.75
2024-02-12T00:22:06.299Z,14.05
2024-02-12T00:24:34.935Z,11.48
2024-02-12T00:27:08.299Z,11.90
2024-02-12T00:29:35.825Z,11.55
2024-02-12T00:32:04.990Z,15.23
2024-02-12T00:34:34.794Z,9.82
2024-02-12T00:37:02.000Z,14.10
2024-02-12T00:39:30.535Z,16.27
2024-02-12T00:41:58.289Z,14.75
2024-02-12T00:44:25.095Z,14.07
2024-02-12T00:46:55.825Z,13.63
2024-02-12T00:49:24.606Z,10.10
2024-02-12T00:51:52.343Z,11.05
2024-02-12T00:54:19.543Z,13.60
2024-02-12T00:56:46.382Z,10.55
2024-02-12T00:59:13.475Z,12.73
2024-02-12T01:01:40.428Z,8.88
2024-02-12T01:04:10.677Z,11.50
2024-02-12T01:06:40.895Z,15.48
2024-02-12T01:09:12.385Z,12.48
2024-02-12T01:11:40.636Z,8.85
2024-02-12T01:14:08.187Z,13.23
2024-02-12T01:16:35.512Z,13.90
2024-02-12T01:19:03.562Z,12.50
2024-02-12T01:21:34.297Z,15.52
2024-02-12T01:26:35.901Z,12.30
2024-02-12T01:29:07.099Z,13.18
2024-02-12T01:31:37.529Z,13.40
2024-02-12T01:36:36.859Z,11.40
2024-02-12T01:39:07.838Z,11.45
2024-02-12T01:41:34.734Z,13.77
2024-02-12T01:44:02.744Z,11.43
2024-02-12T01:46:29.762Z,13.88
2024-02-12T01:48:57.001Z,13.63
2024-02-12T01:51:24.267Z,19.02
2024-02-12T01:53:51.849Z,12.80
2024-02-12T01:56:21.638Z,17.58
2024-02-12T01:58:48.832Z,14.20
2024-02-12T02:01:17.395Z,13.30
2024-02-12T02:03:45.996Z,15.30
2024-02-12T02:06:14.588Z,15.48
2024-02-12T02:08:42.972Z,14.13
2024-02-12T02:11:13.172Z,10.73
2024-02-12T02:13:44.346Z,18.77
2024-02-12T02:16:17.201Z,14.15
2024-02-12T02:18:52.391Z,16.10
2024-02-12T02:21:22.498Z,11.65
2024-02-12T02:23:50.386Z,14.52
2024-02-12T02:26:17.342Z,16.38
2024-02-12T02:28:44.360Z,13.52
2024-02-12T02:31:11.658Z,14.15
2024-02-12T02:33:38.594Z,15.10
2024-02-12T02:36:05.857Z,10.80
2024-02-12T02:38:32.992Z,14.35
2024-02-12T02:41:00.027Z,14.88
2024-02-12T02:43:27.379Z,19.15
2024-02-12T02:45:55.957Z,15.38
2024-02-12T02:48:23.230Z,11.40
2024-02-12T02:50:50.220Z,10.80
2024-02-12T02:53:17.125Z,13.80
2024-02-12T02:55:44.494Z,15.27
2024-02-12T02:58:11.335Z,20.02
2024-02-12T03:00:38.293Z,14.43
2024-02-12T03:03:05.425Z,16.85
2024-02-12T03:05:32.348Z,13.25
2024-02-12T03:08:03.621Z,18.73
2024-02-12T03:10:31.589Z,11.15
2024-02-12T03:12:59.516Z,12.95
2024-02-12T03:15:27.611Z,17.83
2024-02-12T03:17:55.325Z,11.75
2024-02-12T03:20:22.711Z,11.95
2024-02-12T03:22:49.587Z,15.20
2024-02-12T03:25:17.127Z,14.35
2024-02-12T03:27:45.050Z,15.77
2024-02-12T03:30:12.496Z,16.55
2024-02-12T03:32:42.326Z,14.02
2024-02-12T03:35:09.660Z,11.77
2024-02-12T03:37:36.984Z,14.57
2024-02-12T03:40:04.694Z,12.98
2024-02-12T03:42:31.501Z,15.38
2024-02-12T03:44:58.386Z,11.95
2024-02-12T03:47:39.441Z,11.77
2024-02-12T03:50:27.076Z,16.10
2024-02-12T03:53:12.911Z,13.60
2024-02-12T03:56:00.751Z,14.57
2024-02-12T03:58:46.583Z,14.48
2024-02-12T04:01:14.428Z,12.07
2024-02-12T04:03:41.336Z,13.38
2024-02-12T04:06:13.605Z,17.50
2024-02-12T04:08:42.921Z,15.18
2024-02-12T04:11:11.004Z,15.05
2024-02-12T04:13:39.156Z,12.10
2024-02-12T04:16:10.317Z,11.75
2024-02-12T04:18:37.191Z,14.30
2024-02-12T04:21:10.312Z,14.77
2024-02-12T04:23:39.019Z,13.20
2024-02-12T04:26:09.777Z,13.60
2024-02-12T04:28:40.948Z,12.77
2024-02-12T04:31:08.077Z,15.20
2024-02-12T04:33:34.945Z,16.50
2024-02-12T04:36:02.976Z,17.08
2024-02-12T04:38:34.643Z,15.68
2024-02-12T04:41:01.956Z,10.50
2024-02-12T04:43:28.853Z,12.65
2024-02-12T04:45:55.617Z,12.10
2024-02-12T04:48:22.610Z,17.30
2024-02-12T04:50:49.565Z,12.90
2024-02-12T04:53:17.093Z,12.40
2024-02-12T04:55:44.183Z,16.50
2024-02-12T04:58:11.056Z,11.93
2024-02-12T05:00:37.884Z,18.92
2024-02-12T05:03:05.075Z,12.90
2024-02-12T05:05:33.242Z,13.30
2024-02-12T05:08:04.824Z,16.55
2024-02-12T05:10:33.155Z,18.05
2024-02-12T05:13:00.986Z,14.40
2024-02-12T05:15:27.943Z,16.00
2024-02-12T05:18:08.168Z,15.48
2024-02-12T05:23:23.199Z,14.18
2024-02-12T05:25:50.029Z,12.75
2024-02-12T05:28:16.788Z,16.25
2024-02-12T05:30:43.607Z,16.02
2024-02-12T05:33:12.833Z,15.20
2024-02-12T05:35:41.654Z,18.15
2024-02-12T05:38:09.650Z,15.43
2024-02-12T05:40:38.268Z,16.60
2024-02-12T05:43:05.007Z,13.68
2024-02-12T05:45:32.141Z,14.50
2024-02-12T05:47:59.072Z,20.35
2024-02-12T05:50:26.106Z,13.27
2024-02-12T05:52:53.165Z,13.95
2024-02-12T05:55:20.063Z,19.35
2024-02-12T05:57:46.878Z,13.27
2024-02-12T06:00:14.053Z,14.93
2024-02-12T06:02:42.685Z,15.02
2024-02-12T06:05:10.143Z,14.43
2024-02-12T06:07:37.182Z,17.58
2024-02-12T06:10:04.621Z,20.30
2024-02-12T06:12:31.487Z,14.13
2024-02-12T06:14:58.300Z,15.88
2024-02-12T06:17:25.094Z,13.77
2024-02-12T06:19:52.423Z,17.33
2024-02-12T06:22:20.446Z,16.77
2024-02-12T06:24:47.188Z,14.48
2024-02-12T06:27:16.108Z,11.55
2024-02-12T06:29:43.226Z,16.00
2024-02-12T06:32:15.401Z,17.58
2024-02-12T06:34:48.866Z,16.02
2024-02-12T06:37:19.324Z,19.38
2024-02-12T06:39:46.118Z,15.98
2024-02-12T06:42:13.003Z,14.90
2024-02-12T06:44:40.813Z,21.25
2024-02-12T06:47:09.475Z,17.90
2024-02-12T06:49:36.575Z,19.83
2024-02-12T06:52:03.413Z,16.52
2024-02-12T06:54:30.312Z,20.48
2024-02-12T06:56:57.067Z,14.38
2024-02-12T06:59:24.620Z,21.30
2024-02-12T07:01:51.481Z,21.67
2024-02-12T07:04:18.218Z,19.15
2024-02-12T07:06:47.546Z,24.08
2024-02-12T07:09:14.393Z,21.70
2024-02-12T07:11:41.239Z,22.85
2024-02-12T07:14:08.026Z,23.05
2024-02-12T07:16:34.917Z,21.08
2024-02-12T07:19:01.809Z,21.50
2024-02-12T07:21:28.608Z,17.38
2024-02-12T07:23:55.461Z,20.17
2024-02-12T07:26:22.799Z,18.15
2024-02-12T07:28:52.851Z,17.25
2024-02-12T07:31:19.990Z,14.70
2024-02-12T07:33:46.997Z,16.40
2024-02-12T07:36:14.266Z,22.90
2024-02-12T07:38:41.676Z,18.65
2024-02-12T07:41:10.041Z,18.65
2024-02-12T07:43:37.190Z,18.60
2024-02-12T07:46:05.586Z,20.70
2024-02-12T07:48:32.492Z,19.15
2024-02-12T07:51:00.426Z,17.77
2024-02-12T07:53:30.404Z,18.92
2024-02-12T07:55:57.799Z,16.17
2024-02-12T07:58:25.844Z,15.52
2024-02-12T08:00:53.147Z,14.93
2024-02-12T08:03:21.341Z,17.85
2024-02-12T08:05:49.119Z,21.85
2024-02-12T08:08:17.631Z,14.50
2024-02-12T08:10:47.303Z,17.70
2024-02-12T08:13:14.511Z,14.35
2024-02-12T08:15:41.376Z,19.92
2024-02-12T08:18:08.467Z,18.55
2024-02-12T08:20:36.037Z,15.35
2024-02-12T08:23:06.104Z,12.48
2024-02-12T08:25:32.905Z,18.02
2024-02-12T08:27:59.822Z,14.65
2024-02-12T08:30:26.768Z,19.25
2024-02-12T08:32:53.871Z,16.77
2024-02-12T08:35:22.516Z,16.63
2024-02-12T08:37:49.786Z,18.92
2024-02-12T08:40:17.986Z,19.13
2024-02-12T08:42:48.541Z,11.00
2024-02-12T08:47:42.980Z,21.33
2024-02-12T08:50:11.951Z,13.05
2024-02-12T08:52:39.136Z,18.92
2024-02-12T08:55:16.791Z,11.48
2024-02-12T08:57:44.077Z,12.85
2024-02-12T09:00:12.142Z,12.48
2024-02-12T09:02:39.153Z,11.23
2024-02-12T09:05:11.988Z,19.50
2024-02-12T09:07:42.566Z,13.65
2024-02-12T09:10:11.053Z,12.30
2024-02-12T09:12:47.962Z,13.25
2024-02-12T09:15:20.874Z,13.07
2024-02-12T09:17:48.577Z,15.30
2024-02-12T09:20:17.054Z,16.77
2024-02-12T09:22:44.502Z,11.82
2024-02-12T09:25:12.976Z,12.32
2024-02-12T09:27:40.795Z,8.43
2024-02-12T09:30:10.974Z,7.70
2024-02-12T09:32:39.680Z,10.25
2024-02-12T09:35:08.929Z,9.68
2024-02-12T09:37:35.952Z,8.27
2024-02-12T09:40:05.095Z,12.10
2024-02-12T09:42:35.559Z,12.18
2024-02-12T09:47:35.197Z,8.73
2024-02-12T09:50:06.051Z,9.30
2024-02-12T09:52:33.345Z,9.02
2024-02-12T09:55:00.739Z,14.57
2024-02-12T09:57:33.896Z,14.50
2024-02-12T10:00:01.522Z,11.60
2024-02-12T10:02:37.049Z,12.95
2024-02-12T10:05:08.221Z,8.38
2024-02-12T10:07:41.286Z,14.45
2024-02-12T10:10:09.508Z,8.60
2024-02-12T10:12:40.781Z,13.77
2024-02-12T10:15:08.311Z,12.93
2024-02-12T10:17:35.214Z,10.10
2024-02-12T10:20:02.332Z,11.00
2024-02-12T10:22:29.899Z,12.02
2024-02-12T10:24:56.963Z,15.98
2024-02-12T10:27:24.085Z,12.02
2024-02-12T10:30:06.595Z,15.02
2024-02-12T10:32:39.114Z,11.68
2024-02-12T10:35:12.692Z,12.45
2024-02-12T10:37:39.672Z,14.30
2024-02-12T10:40:14.245Z,11.55
2024-02-12T10:42:51.254Z,12.63
2024-02-12T10:45:19.267Z,13.02
2024-02-12T10:47:46.735Z,11.00
2024-02-12T10:50:14.916Z,10.35
2024-02-12T10:52:43.072Z,13.23
2024-02-12T10:55:11.457Z,11.23
2024-02-12T10:57:46.176Z,9.48
2024-02-12T11:00:24.715Z,8.15
2024-02-12T11:02:51.945Z,14.63
2024-02-12T11:05:19.644Z,7.72
2024-02-12T11:07:46.787Z,6.95
2024-02-12T11:10:19.601Z,3.83
2024-02-12T11:12:50.484Z,4.63
2024-02-12T11:15:25.113Z,6.28
2024-02-12T11:17:52.187Z,5.40
2024-02-12T11:20:24.481Z,4.43
2024-02-12T11:22:53.688Z,6.88
2024-02-12T11:25:23.380Z,6.88
2024-02-12T11:27:55.649Z,6.60
2024-02-12T11:30:22.651Z,6.47
2024-02-12T11:32:50.105Z,4.28
2024-02-12T11:35:19.672Z,4.05
2024-02-12T11:38:00.509Z,6.70
2024-02-12T11:40:27.631Z,4.18
2024-02-12T11:42:54.716Z,2.92
2024-02-12T11:45:24.177Z,4.10
2024-02-12T11:47:53.669Z,5.70
2024-02-12T11:50:28.232Z,6.72
2024-02-12T11:52:56.422Z,5.45
2024-02-12T11:55:25.054Z,5.03
2024-02-12T11:57:51.954Z,3.00
2024-02-12T12:00:20.297Z,6.38
2024-02-12T12:02:56.372Z,2.92
2024-02-12T12:05:24.879Z,3.88
2024-02-12T12:07:53.079Z,5.35
2024-02-12T12:10:28.042Z,4.30
2024-02-12T12:13:00.987Z,1.23
2024-02-12T12:15:31.755Z,4.75
2024-02-12T12:18:01.972Z,3.80
2024-02-12T12:20:31.640Z,3.17
2024-02-12T12:23:04.873Z,5.72
2024-02-12T12:25:31.928Z,5.45
2024-02-12T12:27:58.810Z,2.40
2024-02-12T12:30:27.197Z,7.95
2024-02-12T12:32:54.165Z,3.65
2024-02-12T12:35:21.309Z,5.45
2024-02-12T12:37:48.341Z,17.10
2024-02-12T12:40:21.399Z,17.80
2024-02-12T12:42:49.766Z,3.65
2024-02-12T12:45:20.733Z,11.15
2024-02-12T12:47:49.836Z,3.10
2024-02-12T12:50:17.141Z,5.75
2024-02-12T12:52:44.825Z,11.77
2024-02-12T12:55:16.377Z,2.33
2024-02-12T12:57:44.297Z,1.83
2024-02-12T13:00:22.668Z,1.92
2024-02-12T13:02:57.010Z,2.15
2024-02-12T13:05:24.445Z,1.17
2024-02-12T13:08:16.882Z,2.55
2024-02-12T13:10:47.870Z,4.25
2024-02-12T13:13:16.041Z,2.55
2024-02-12T13:15:47.815Z,1.15
2024-02-12T13:18:18.559Z,3.15
2024-02-12T13:20:48.014Z,5.32
2024-02-12T13:23:15.641Z,3.00
2024-02-12T13:25:42.475Z,4.63
2024-02-12T13:28:12.545Z,5.25
2024-02-12T13:33:10.216Z,2.50
2024-02-12T13:35:39.900Z,1.65
2024-02-12T13:38:12.296Z,9.90
2024-02-12T13:40:41.195Z,1.75
2024-02-12T13:43:11.907Z,2.50
2024-02-12T13:45:40.970Z,2.13
2024-02-12T13:48:11.357Z,3.45
2024-02-12T13:53:06.902Z,0.85
2024-02-12T13:55:34.958Z,3.28
2024-02-12T13:58:02.128Z,1.33
2024-02-12T14:00:47.204Z,2.90
2024-02-12T14:03:15.917Z,7.18
2024-02-12T14:05:44.523Z,5.30
2024-02-12T14:08:12.655Z,5.97
2024-02-12T14:10:39.746Z,1.88
2024-02-12T14:13:06.752Z,6.25
2024-02-12T14:16:03.699Z,2.20
2024-02-12T14:18:23.537Z,1.90
2024-02-12T14:20:55.026Z,3.17
2024-02-12T14:23:23.353Z,3.05
2024-02-12T14:25:50.580Z,3.30
2024-02-12T14:28:17.492Z,3.90
2024-02-12T14:30:47.200Z,1.77
2024-02-12T14:33:15.993Z,1.30
2024-02-12T14:35:47.813Z,3.65
2024-02-12T14:38:15.355Z,3.42
2024-02-12T14:40:44.538Z,2.67
2024-02-12T14:43:15.486Z,2.58
2024-02-12T14:45:43.310Z,3.35
2024-02-12T14:48:10.642Z,3.92
2024-02-12T14:50:38.251Z,1.38
2024-02-12T14:53:08.356Z,1.58
2024-02-12T14:55:36.758Z,1.55
2024-02-12T14:58:05.174Z,4.72
2024-02-12T15:00:32.416Z,3.20
2024-02-12T15:02:59.998Z,2.42
2024-02-12T15:05:29.322Z,3.38
2024-02-12T15:07:59.580Z,4.93
2024-02-12T15:10:26.685Z,1.35
2024-02-12T15:13:04.710Z,3.97
2024-02-12T15:15:33.817Z,4.93
2024-02-12T15:18:02.376Z,1.23
2024-02-12T15:20:32.517Z,2.03
2024-02-12T15:23:02.978Z,1.83
2024-02-12T15:25:33.037Z,3.88
2024-02-12T15:28:05.690Z,1.83
2024-02-12T15:30:32.792Z,4.75
2024-02-12T15:33:04.207Z,6.28
2024-02-12T15:35:32.245Z,4.05
2024-02-12T15:38:02.315Z,1.50
2024-02-12T15:40:34.448Z,5.28
2024-02-12T15:43:03.041Z,2.40
2024-02-12T15:45:31.604Z,3.75
2024-02-12T15:47:59.692Z,4.47
2024-02-12T15:50:29.779Z,7.75
2024-02-12T15:52:57.303Z,4.03
2024-02-12T15:55:25.877Z,1.83
2024-02-12T15:57:55.061Z,1.10
2024-02-12T16:00:24.246Z,2.40
2024-02-12T16:02:54.930Z,3.38
2024-02-12T16:06:06.544Z,5.07
2024-02-12T16:08:38.650Z,2.58
2024-02-12T16:11:07.673Z,2.47
2024-02-12T16:13:35.091Z,5.20
2024-02-12T16:16:03.426Z,3.05
2024-02-12T16:18:30.239Z,5.78
2024-02-12T16:21:01.070Z,4.78
2024-02-12T16:23:28.180Z,3.67
2024-02-12T16:25:55.276Z,4.35
2024-02-12T16:28:23.111Z,6.00
2024-02-12T16:30:50.346Z,2.78
2024-02-12T16:33:19.131Z,7.30
2024-02-12T16:35:46.746Z,4.32
2024-02-12T16:38:13.907Z,3.55
2024-02-12T16:40:40.863Z,3.60
2024-02-12T16:43:09.485Z,4.25
2024-02-12T16:45:38.801Z,4.78
2024-02-12T16:48:07.026Z,4.22
2024-02-12T16:50:36.891Z,7.25
2024-02-12T16:53:03.998Z,1.75
2024-02-12T16:55:32.571Z,6.30
2024-02-12T16:57:59.342Z,3.60
2024-02-12T17:00:26.242Z,15.93
2024-02-12T17:02:56.300Z,3.80
2024-02-12T17:05:24.243Z,4.20
2024-02-12T17:08:01.596Z,8.40
2024-02-12T17:10:35.553Z,7.38
2024-02-12T17:13:03.164Z,5.63
2024-02-12T17:15:30.006Z,4.50
2024-02-12T17:17:57.736Z,1.92
2024-02-12T17:20:25.661Z,5.28
2024-02-12T17:22:52.519Z,4.47
2024-02-12T17:25:19.592Z,6.97
2024-02-12T17:27:46.741Z,3.75
2024-02-12T17:30:14.816Z,8.82
2024-02-12T17:32:41.897Z,7.40
2024-02-12T17:35:13.006Z,9.75
2024-02-12T17:37:40.919Z,10.52
2024-02-12T17:40:10.598Z,7.65
2024-02-12T17:42:39.501Z,4.47
2024-02-12T17:45:11.020Z,7.80
2024-02-12T17:47:41.462Z,4.28
2024-02-12T17:50:10.974Z,4.47
2024-02-12T17:52:38.272Z,5.43
2024-02-12T17:55:07.695Z,4.05
2024-02-12T17:57:35.906Z,3.00
2024-02-12T18:00:02.745Z,5.60
2024-02-12T18:02:29.693Z,4.10
2024-02-12T18:04:59.095Z,5.15
2024-02-12T18:07:26.092Z,4.68
2024-02-12T18:09:52.954Z,9.32
2024-02-12T18:12:22.518Z,5.43
2024-02-12T18:14:50.317Z,3.97
2024-02-12T18:17:24.563Z,5.88
2024-02-12T18:19:53.085Z,3.42
2024-02-12T18:22:24.388Z,4.85
2024-02-12T18:24:51.138Z,7.95
2024-02-12T18:27:17.982Z,5.20
2024-02-12T18:29:46.623Z,13.60
2024-02-12T18:32:13.828Z,13.45
2024-02-12T18:34:41.836Z,7.15
2024-02-12T18:37:10.552Z,45.40
2024-02-12T18:39:40.782Z,18.42
2024-02-12T18:42:07.878Z,11.60
2024-02-12T18:44:41.591Z,8.90
2024-02-12T18:47:08.491Z,5.05
2024-02-12T18:49:35.447Z,3.78
2024-02-12T18:52:03.467Z,4.05
2024-02-12T18:54:32.438Z,5.07
2024-02-12T18:56:59.334Z,3.72
2024-02-12T18:59:26.222Z,1.63
2024-02-12T19:01:57.190Z,1.63
2024-02-12T19:04:24.623Z,5.93
2024-02-12T19:06:51.651Z,6.32
2024-02-12T19:09:18.798Z,2.30
2024-02-12T19:11:46.177Z,3.42
2024-02-12T19:14:13.572Z,2.42
2024-02-12T19:16:40.435Z,2.70
2024-02-12T19:19:07.517Z,5.00
2024-02-12T19:21:34.561Z,4.57
2024-02-12T19:24:07.343Z,2.08
2024-02-12T19:26:35.919Z,3.15
2024-02-12T19:29:03.157Z,2.15
2024-02-12T19:31:32.152Z,3.42
2024-02-12T19:33:58.938Z,4.35
2024-02-12T19:36:25.764Z,3.42
2024-02-12T19:38:52.630Z,3.20
2024-02-12T19:41:19.596Z,3.47
2024-02-12T19:43:48.587Z,3.25
2024-02-12T19:46:15.472Z,4.68
2024-02-12T19:48:42.419Z,2.35
2024-02-12T19:51:09.281Z,9.98
2024-02-12T19:53:36.052Z,7.18
2024-02-12T19:56:04.708Z,2.65
2024-02-12T19:58:35.014Z,4.03
2024-02-12T20:01:05.023Z,9.60
2024-02-12T20:03:31.857Z,3.80
2024-02-12T20:05:58.804Z,3.10
2024-02-12T20:08:25.776Z,4.75
2024-02-12T20:10:52.921Z,2.47
2024-02-12T20:13:19.695Z,4.03
2024-02-12T20:15:46.534Z,4.72
2024-02-12T20:18:13.728Z,2.20
2024-02-12T20:20:41.138Z,2.88
2024-02-12T20:23:08.082Z,3.25
2024-02-12T20:25:36.248Z,4.90
2024-02-12T20:28:05.959Z,3.45
2024-02-12T20:30:40.105Z,4.53
2024-02-12T20:33:06.981Z,3.35
2024-02-12T20:35:33.942Z,4.97
2024-02-12T20:38:03.021Z,2.00
2024-02-12T20:40:30.308Z,2.80
2024-02-12T20:42:57.046Z,2.00
2024-02-12T20:45:23.928Z,5.32
2024-02-12T20:47:50.928Z,2.20
2024-02-12T20:50:19.019Z,7.72
2024-02-12T20:52:45.899Z,3.53
2024-02-12T20:55:15.051Z,3.15
2024-02-12T20:57:43.407Z,3.80
2024-02-12T21:00:10.822Z,4.45
2024-02-12T21:02:37.883Z,5.25
2024-02-12T21:05:10.985Z,11.38
2024-02-12T21:07:40.334Z,2.72
2024-02-12T21:10:07.829Z,2.45
2024-02-12T21:12:34.688Z,1.60
2024-02-12T21:15:01.640Z,3.97
2024-02-12T21:17:29.627Z,2.25
2024-02-12T21:19:58.411Z,3.15
2024-02-12T21:22:25.358Z,6.55
2024-02-12T21:24:52.138Z,2.05
2024-02-12T21:27:19.134Z,3.75
2024-02-12T21:29:47.590Z,1.75
2024-02-12T21:32:15.931Z,3.42
2024-02-12T21:34:43.548Z,2.97
2024-02-12T21:37:18.402Z,4.70
2024-02-12T21:39:49.511Z,4.32
2024-02-12T21:42:27.959Z,1.85
2024-02-12T21:44:57.239Z,1.90
2024-02-12T21:47:24.741Z,4.03
2024-02-12T21:49:55.175Z,3.85
2024-02-12T21:52:22.548Z,4.68
2024-02-12T21:54:53.250Z,6.97
2024-02-12T21:57:21.394Z,5.25
2024-02-12T21:59:53.408Z,3.42
2024-02-12T22:02:21.552Z,4.95
2024-02-12T22:04:55.270Z,6.15
2024-02-12T22:07:22.626Z,4.90
2024-02-12T22:09:49.879Z,5.47
2024-02-12T22:12:17.251Z,3.38
2024-02-12T22:14:45.096Z,4.55
2024-02-12T22:17:12.535Z,2.78
2024-02-12T22:19:39.535Z,6.47
2024-02-12T22:22:06.414Z,4.78
2024-02-12T22:24:33.186Z,4.47
2024-02-12T22:27:00.078Z,4.18
2024-02-12T22:29:26.994Z,4.22
2024-02-12T22:31:53.899Z,4.85
2024-02-12T22:34:22.032Z,6.47
2024-02-12T22:36:49.387Z,3.88
2024-02-12T22:39:16.196Z,8.43
2024-02-12T22:41:43.276Z,4.57
2024-02-12T22:44:10.414Z,3.22
2024-02-12T22:46:37.909Z,4.03
2024-02-12T22:49:06.723Z,5.28
2024-02-12T22:51:33.973Z,4.25
2024-02-12T22:54:01.060Z,7.45
2024-02-12T22:56:28.461Z,5.65
2024-02-12T22:58:55.468Z,7.15
2024-02-12T23:01:22.362Z,5.75
2024-02-12T23:03:50.152Z,6.10
2024-02-12T23:06:17.725Z,5.88
2024-02-12T23:08:45.285Z,2.88
2024-02-12T23:11:12.547Z,5.38
2024-02-12T23:13:39.783Z,3.80
2024-02-12T23:16:07.699Z,6.45
2024-02-12T23:18:37.223Z,5.70
2024-02-12T23:21:06.233Z,5.95
2024-02-12T23:23:33.583Z,5.55
2024-02-12T23:26:01.837Z,3.85
2024-02-12T23:28:30.782Z,6.30
2024-02-12T23:30:57.848Z,5.57
2024-02-12T23:33:24.856Z,3.97
2024-02-12T23:35:52.109Z,3.83
2024-02-12T23:38:23.198Z,4.45
2024-02-12T23:40:52.056Z,4.18
2024-02-12T23:43:19.122Z,5.10
2024-02-12T23:45:46.012Z,3.05
2024-02-12T23:48:16.129Z,5.30
2024-02-12T23:50:44.319Z,4.35
2024-02-12T23:53:12.575Z,5.20
2024-02-12T23:55:39.541Z,8.15
2024-02-12T23:58:06.379Z,3.97
